Time;durP1;ratioP1;P1;durP2;ratioP2;P2;SDS_P1;SDS_P2;PMS_P1;PMS_P2;Temp;Humidity;BMP_temperature;BMP_pressure;BME280_temperature;BME280_humidity;BME280_pressure;Samples;Min_cycle;Max_cycle;Signal;HPM_P1;HPM_P2
2022/06/18 00:02:23;;;;;;;7.07;3.80;;;;;;;;;;5095556;27;20038;-74
2022/06/18 00:04:49;;;;;;;6.88;3.80;;;;;;;;;;5116378;27;20066;-74
2022/06/18 00:07:19;;;;;;;5.78;3.97;;;;;;;;;;5110421;27;20047;-75
2022/06/18 00:09:51;;;;;;;9.23;4.60;;;;;;;;;;5112774;27;20038;-75
2022/06/18 00:15:18;;;;;;;9.00;4.50;;;;;;;;;;5109417;27;20105;-74
2022/06/18 00:17:44;;;;;;;8.50;4.60;;;;;;;;;;5104647;27;20099;-74
2022/06/18 00:20:11;;;;;;;6.45;4.00;;;;;;;;;;5117162;27;20045;-74
2022/06/18 00:22:37;;;;;;;6.82;4.07;;;;;;;;;;5107525;27;20046;-74
2022/06/18 00:25:07;;;;;;;11.48;4.50;;;;;;;;;;5111660;27;20043;-74
2022/06/18 00:27:33;;;;;;;12.48;4.10;;;;;;;;;;5112996;27;20035;-75
2022/06/18 00:29:59;;;;;;;8.50;4.55;;;;;;;;;;5106947;27;20053;-74
2022/06/18 00:32:25;;;;;;;7.03;4.43;;;;;;;;;;5111929;27;20047;-74
2022/06/18 00:34:51;;;;;;;6.10;4.38;;;;;;;;;;5109122;27;20046;-73
2022/06/18 00:37:19;;;;;;;7.85;4.57;;;;;;;;;;5108901;27;20100;-74
2022/06/18 00:39:46;;;;;;;7.28;4.60;;;;;;;;;;5109277;27;20048;-74
2022/06/18 00:42:16;;;;;;;4.68;4.10;;;;;;;;;;5112643;27;20116;-74
2022/06/18 00:44:47;;;;;;;5.00;4.35;;;;;;;;;;5083724;27;20031;-74
2022/06/18 00:47:16;;;;;;;7.07;4.57;;;;;;;;;;5108667;27;20035;-75
2022/06/18 00:50:03;;;;;;;13.07;4.40;;;;;;;;;;5112760;27;20399;-74
2022/06/18 00:52:29;;;;;;;11.52;4.53;;;;;;;;;;5108820;27;20035;-74
2022/06/18 00:54:56;;;;;;;6.85;4.30;;;;;;;;;;5106989;27;20476;-74
2022/06/18 00:57:48;;;;;;;5.70;4.30;;;;;;;;;;5106852;27;20039;-74
2022/06/18 01:00:17;;;;;;;8.98;4.70;;;;;;;;;;5109458;27;20126;-74
2022/06/18 01:02:45;;;;;;;7.85;4.88;;;;;;;;;;5104996;27;20458;-75
2022/06/18 01:05:23;;;;;;;10.38;5.05;;;;;;;;;;5110090;27;20039;-74
2022/06/18 01:07:58;;;;;;;7.40;5.22;;;;;;;;;;5109455;27;20042;-74
2022/06/18 01:10:30;;;;;;;7.35;5.10;;;;;;;;;;5110103;27;20054;-74
2022/06/18 01:12:57;;;;;;;6.60;5.22;;;;;;;;;;5109696;27;20096;-74
2022/06/18 01:15:24;;;;;;;6.43;4.95;;;;;;;;;;5077157;27;20114;-75
2022/06/18 01:17:52;;;;;;;9.55;5.55;;;;;;;;;;5110253;27;20039;-75
2022/06/18 01:20:18;;;;;;;12.32;5.25;;;;;;;;;;5111032;27;20088;-74
2022/06/18 01:22:52;;;;;;;7.35;4.47;;;;;;;;;;5109078;27;20039;-74
2022/06/18 01:25:18;;;;;;;11.40;5.38;;;;;;;;;;5092827;27;20077;-74
2022/06/18 01:27:44;;;;;;;7.25;4.68;;;;;;;;;;5111635;27;20075;-75
2022/06/18 01:30:14;;;;;;;7.65;4.70;;;;;;;;;;5106770;27;20099;-74
2022/06/18 01:32:40;;;;;;;8.68;4.80;;;;;;;;;;5108940;27;20032;-74
2022/06/18 01:35:06;;;;;;;11.75;4.85;;;;;;;;;;5115045;27;20043;-74
2022/06/18 01:37:32;;;;;;;7.15;5.00;;;;;;;;;;5114565;27;20089;-74
2022/06/18 01:39:58;;;;;;;10.77;5.00;;;;;;;;;;5114235;27;20042;-74
2022/06/18 01:42:30;;;;;;;7.35;5.10;;;;;;;;;;5107321;27;20038;-74
2022/06/18 01:45:03;;;;;;;7.30;4.93;;;;;;;;;;5113278;27;20060;-75
2022/06/18 01:47:44;;;;;;;6.38;5.43;;;;;;;;;;5123978;27;20054;-74
2022/06/18 01:50:13;;;;;;;9.13;5.40;;;;;;;;;;5116230;27;20575;-74
2022/06/18 01:52:40;;;;;;;7.75;5.70;;;;;;;;;;5109108;27;20047;-74
2022/06/18 01:55:10;;;;;;;9.13;5.68;;;;;;;;;;5115149;27;20047;-74
2022/06/18 01:57:38;;;;;;;11.18;5.65;;;;;;;;;;5111717;27;20038;-75
2022/06/18 02:00:12;;;;;;;10.68;5.82;;;;;;;;;;5116642;27;20165;-75
2022/06/18 02:02:38;;;;;;;9.63;5.82;;;;;;;;;;5110767;27;20092;-74
2022/06/18 02:05:05;;;;;;;9.15;5.70;;;;;;;;;;5098606;27;20052;-74
2022/06/18 02:07:31;;;;;;;10.73;6.28;;;;;;;;;;5114718;27;20039;-75
2022/06/18 02:10:08;;;;;;;10.45;6.00;;;;;;;;;;5114161;27;21198;-75
2022/06/18 02:12:37;;;;;;;10.43;5.82;;;;;;;;;;5110642;27;20156;-75
2022/06/18 02:15:06;;;;;;;9.95;6.00;;;;;;;;;;5113556;27;20034;-75
2022/06/18 02:17:32;;;;;;;6.30;5.70;;;;;;;;;;5114232;27;20035;-75
2022/06/18 02:20:01;;;;;;;7.78;5.82;;;;;;;;;;5112086;27;20039;-75
2022/06/18 02:22:35;;;;;;;8.40;6.13;;;;;;;;;;5114284;27;20072;-75
2022/06/18 02:25:01;;;;;;;7.93;6.07;;;;;;;;;;5117020;27;20047;-74
2022/06/18 02:27:28;;;;;;;9.57;6.10;;;;;;;;;;5112587;27;20049;-74
2022/06/18 02:29:55;;;;;;;9.65;6.07;;;;;;;;;;5114325;27;20039;-75
2022/06/18 02:32:29;;;;;;;12.10;6.20;;;;;;;;;;5114918;27;20043;-74
2022/06/18 02:34:55;;;;;;;11.52;6.88;;;;;;;;;;5113296;28;20038;-74
2022/06/18 02:37:28;;;;;;;15.25;6.80;;;;;;;;;;5112624;27;20046;-74
2022/06/18 02:40:02;;;;;;;16.85;7.45;;;;;;;;;;5112183;27;20036;-74
2022/06/18 02:42:33;;;;;;;10.23;6.93;;;;;;;;;;5117064;27;20534;-73
2022/06/18 02:45:00;;;;;;;12.77;7.53;;;;;;;;;;5114815;28;20075;-74
2022/06/18 02:47:26;;;;;;;14.35;7.25;;;;;;;;;;5114509;28;20051;-74
2022/06/18 02:49:56;;;;;;;12.45;7.55;;;;;;;;;;5114133;28;20130;-75
2022/06/18 02:52:24;;;;;;;13.00;7.43;;;;;;;;;;5111076;28;20047;-74
2022/06/18 02:54:50;;;;;;;11.75;7.45;;;;;;;;;;5112103;28;20044;-74
2022/06/18 02:57:21;;;;;;;14.75;7.93;;;;;;;;;;5114615;27;20043;-74
2022/06/18 02:59:47;;;;;;;8.90;7.30;;;;;;;;;;5118641;28;20036;-74
2022/06/18 03:02:13;;;;;;;13.50;7.95;;;;;;;;;;5122332;27;20040;-74
2022/06/18 03:04:39;;;;;;;13.05;7.93;;;;;;;;;;5111662;28;20083;-74
2022/06/18 03:07:05;;;;;;;11.77;7.90;;;;;;;;;;5111883;28;20043;-74
2022/06/18 03:12:06;;;;;;;11.85;7.50;;;;;;;;;;5121159;28;20484;-75
2022/06/18 03:12:17;;;;;;;10.77;7.05;;;;;;;;;;5102420;27;20051;-75
2022/06/18 03:14:43;;;;;;;12.10;7.90;;;;;;;;;;5113376;28;20044;-75
2022/06/18 03:17:09;;;;;;;14.20;8.00;;;;;;;;;;5126350;27;20069;-75
2022/06/18 03:19:44;;;;;;;10.13;6.88;;;;;;;;;;5125982;27;20046;-75
2022/06/18 03:22:18;;;;;;;14.80;7.72;;;;;;;;;;5107561;28;20039;-74
2022/06/18 03:24:44;;;;;;;10.55;7.30;;;;;;;;;;5107033;28;20031;-74
2022/06/18 03:27:11;;;;;;;10.90;7.75;;;;;;;;;;5110632;28;20392;-74
2022/06/18 03:29:38;;;;;;;9.13;7.43;;;;;;;;;;5112569;28;20035;-75
2022/06/18 03:32:04;;;;;;;10.77;7.78;;;;;;;;;;5113245;27;20071;-74
2022/06/18 03:34:30;;;;;;;11.45;8.10;;;;;;;;;;5118085;27;20047;-74
2022/06/18 03:36:56;;;;;;;10.23;8.02;;;;;;;;;;5113381;27;20055;-74
2022/06/18 03:39:23;;;;;;;15.63;8.68;;;;;;;;;;5128805;27;20042;-74
2022/06/18 03:41:49;;;;;;;13.15;8.45;;;;;;;;;;5115039;27;20046;-75
2022/06/18 03:44:15;;;;;;;12.27;8.20;;;;;;;;;;5112449;27;20035;-74
2022/06/18 03:46:43;;;;;;;13.38;8.73;;;;;;;;;;5128003;27;20036;-75
2022/06/18 03:49:16;;;;;;;11.70;8.30;;;;;;;;;;5114214;27;20046;-74
2022/06/18 03:51:42;;;;;;;12.70;8.93;;;;;;;;;;5117036;27;20122;-74
2022/06/18 03:54:08;;;;;;;12.38;9.05;;;;;;;;;;5112220;27;20130;-74
2022/06/18 03:56:34;;;;;;;13.40;9.27;;;;;;;;;;5117021;27;20084;-74
2022/06/18 03:59:01;;;;;;;10.45;8.82;;;;;;;;;;5117579;27;20043;-74
2022/06/18 04:01:28;;;;;;;12.48;9.13;;;;;;;;;;5115963;27;20074;-74
2022/06/18 04:03:54;;;;;;;14.07;9.07;;;;;;;;;;5112345;27;20040;-74
2022/06/18 04:06:20;;;;;;;16.33;10.00;;;;;;;;;;5115816;27;20039;-74
2022/06/18 04:08:47;;;;;;;14.32;9.20;;;;;;;;;;5113177;27;20055;-74
2022/06/18 04:11:13;;;;;;;12.07;8.57;;;;;;;;;;5112747;27;20046;-74
2022/06/18 04:13:40;;;;;;;14.00;9.07;;;;;;;;;;5107393;27;20126;-74
2022/06/18 04:16:06;;;;;;;11.80;9.30;;;;;;;;;;5116609;27;20075;-75
2022/06/18 04:18:33;;;;;;;15.60;9.45;;;;;;;;;;5117237;27;20084;-75
2022/06/18 04:20:59;;;;;;;14.07;9.32;;;;;;;;;;5105481;27;20035;-74
2022/06/18 04:23:26;;;;;;;12.85;9.60;;;;;;;;;;5096981;27;20088;-74
2022/06/18 04:25:52;;;;;;;13.43;9.55;;;;;;;;;;5109292;27;20047;-74
2022/06/18 04:28:18;;;;;;;11.20;9.65;;;;;;;;;;5117591;27;20047;-75
2022/06/18 04:30:45;;;;;;;20.48;10.73;;;;;;;;;;5120217;27;20083;-75
2022/06/18 04:33:11;;;;;;;19.10;10.57;;;;;;;;;;5111199;27;20047;-75
2022/06/18 04:35:38;;;;;;;16.63;10.00;;;;;;;;;;5117890;27;20071;-74
2022/06/18 04:38:04;;;;;;;12.43;10.48;;;;;;;;;;5117831;27;20035;-75
2022/06/18 04:40:34;;;;;;;11.82;10.23;;;;;;;;;;5110336;27;20041;-74
2022/06/18 04:43:01;;;;;;;15.63;10.23;;;;;;;;;;5119158;27;20049;-74
2022/06/18 04:45:29;;;;;;;21.00;10.63;;;;;;;;;;5098399;27;20035;-75
2022/06/18 04:47:56;;;;;;;14.68;10.73;;;;;;;;;;5111277;27;20503;-74
2022/06/18 04:50:24;;;;;;;22.90;11.35;;;;;;;;;;5093121;27;20043;-74
2022/06/18 04:52:50;;;;;;;15.20;10.57;;;;;;;;;;5119003;27;20102;-75
2022/06/18 04:55:16;;;;;;;16.75;10.50;;;;;;;;;;5112484;27;20490;-75
2022/06/18 04:57:42;;;;;;;17.38;10.85;;;;;;;;;;5114211;27;20070;-74
2022/06/18 05:00:09;;;;;;;22.52;11.63;;;;;;;;;;5112759;27;20142;-74
2022/06/18 05:02:36;;;;;;;22.40;11.73;;;;;;;;;;5118194;27;20043;-74
2022/06/18 05:05:03;;;;;;;19.20;11.35;;;;;;;;;;5111283;27;20046;-75
2022/06/18 05:07:29;;;;;;;21.83;11.20;;;;;;;;;;5116172;27;20049;-74
2022/06/18 05:09:55;;;;;;;22.85;12.20;;;;;;;;;;5113887;27;20047;-74
2022/06/18 05:12:21;;;;;;;22.35;10.50;;;;;;;;;;5115743;27;20158;-75
2022/06/18 05:14:48;;;;;;;23.23;11.93;;;;;;;;;;5108094;27;20034;-74
2022/06/18 05:17:20;;;;;;;25.80;11.88;;;;;;;;;;5110994;27;20126;-74
2022/06/18 05:19:46;;;;;;;23.48;11.90;;;;;;;;;;5117527;27;20098;-74
2022/06/18 05:22:13;;;;;;;22.73;12.07;;;;;;;;;;5111777;27;20027;-75
2022/06/18 05:24:39;;;;;;;20.65;11.98;;;;;;;;;;5107582;27;20118;-74
2022/06/18 05:27:05;;;;;;;25.15;12.23;;;;;;;;;;5105373;27;20043;-74
2022/06/18 05:29:32;;;;;;;20.30;11.40;;;;;;;;;;5107322;27;20042;-74
2022/06/18 05:31:58;;;;;;;17.42;11.55;;;;;;;;;;5114242;27;20034;-74
2022/06/18 05:34:24;;;;;;;23.60;12.65;;;;;;;;;;5115248;27;20038;-75
2022/06/18 05:36:50;;;;;;;22.83;11.70;;;;;;;;;;5116147;27;20442;-75
2022/06/18 05:39:17;;;;;;;25.88;12.40;;;;;;;;;;5112076;27;20040;-75
2022/06/18 05:41:43;;;;;;;22.60;12.02;;;;;;;;;;5105745;27;20042;-75
2022/06/18 05:44:10;;;;;;;24.50;11.95;;;;;;;;;;5115848;27;20054;-74
2022/06/18 05:46:36;;;;;;;20.38;11.77;;;;;;;;;;5109314;27;20035;-74
2022/06/18 05:49:02;;;;;;;25.52;12.85;;;;;;;;;;5109659;27;20035;-74
2022/06/18 05:51:28;;;;;;;24.08;11.68;;;;;;;;;;5114725;27;20039;-75
2022/06/18 05:53:54;;;;;;;22.77;12.05;;;;;;;;;;5111137;27;20031;-74
2022/06/18 05:56:21;;;;;;;26.05;11.95;;;;;;;;;;5115575;27;20092;-74
2022/06/18 05:58:47;;;;;;;23.98;12.65;;;;;;;;;;5097188;27;20118;-74
2022/06/18 06:01:13;;;;;;;24.45;12.48;;;;;;;;;;5110720;27;20121;-74
2022/06/18 06:03:39;;;;;;;26.55;12.23;;;;;;;;;;5113050;27;20043;-74
2022/06/18 06:06:05;;;;;;;24.23;12.45;;;;;;;;;;5114182;27;20047;-74
2022/06/18 06:08:31;;;;;;;22.98;11.63;;;;;;;;;;5113632;27;20071;-74
2022/06/18 06:13:42;;;;;;;25.70;11.35;;;;;;;;;;5113829;27;20039;-74
2022/06/18 06:16:09;;;;;;;22.95;11.32;;;;;;;;;;5092169;27;20050;-74
2022/06/18 06:18:35;;;;;;;19.45;11.13;;;;;;;;;;5107210;27;20044;-74
2022/06/18 06:21:02;;;;;;;21.38;11.18;;;;;;;;;;5116233;27;20045;-74
2022/06/18 06:23:28;;;;;;;22.88;10.82;;;;;;;;;;5116467;27;20118;-75
2022/06/18 06:25:54;;;;;;;22.95;10.52;;;;;;;;;;5115299;27;20047;-75
2022/06/18 06:28:21;;;;;;;20.33;10.50;;;;;;;;;;5101962;28;20051;-74
2022/06/18 06:30:47;;;;;;;19.67;9.90;;;;;;;;;;5107790;27;20103;-75
2022/06/18 06:33:13;;;;;;;19.30;10.57;;;;;;;;;;5107353;27;20039;-74
2022/06/18 06:35:40;;;;;;;21.75;10.15;;;;;;;;;;5111775;27;20039;-75
2022/06/18 06:38:07;;;;;;;23.55;9.90;;;;;;;;;;5107155;27;20043;-75
2022/06/18 06:40:33;;;;;;;21.38;10.65;;;;;;;;;;5112036;27;20043;-74
2022/06/18 06:42:59;;;;;;;22.95;11.00;;;;;;;;;;5102585;27;20042;-75
2022/06/18 06:45:27;;;;;;;27.08;10.60;;;;;;;;;;5106607;28;20042;-74
2022/06/18 06:47:54;;;;;;;21.70;10.88;;;;;;;;;;5088363;27;20050;-75
2022/06/18 06:50:20;;;;;;;23.35;10.65;;;;;;;;;;5109261;28;20034;-74
2022/06/18 06:52:50;;;;;;;21.48;10.38;;;;;;;;;;5106592;27;20169;-74
2022/06/18 06:58:04;;;;;;;20.27;10.52;;;;;;;;;;5106359;28;20065;-74
2022/06/18 07:00:31;;;;;;;18.92;10.35;;;;;;;;;;5105513;28;20035;-75
2022/06/18 07:02:57;;;;;;;27.55;10.43;;;;;;;;;;5112571;28;20066;-75
2022/06/18 07:05:24;;;;;;;20.92;10.75;;;;;;;;;;5109397;27;20129;-75
2022/06/18 07:07:50;;;;;;;25.45;10.57;;;;;;;;;;5109345;27;20102;-75
2022/06/18 07:10:16;;;;;;;17.60;8.80;;;;;;;;;;5112473;27;20035;-75
2022/06/18 07:12:43;;;;;;;21.13;8.73;;;;;;;;;;5123939;27;20043;-74
2022/06/18 07:15:09;;;;;;;17.83;9.73;;;;;;;;;;5113602;27;20126;-75
2022/06/18 07:17:35;;;;;;;18.17;9.77;;;;;;;;;;5111672;27;20077;-75
2022/06/18 07:20:02;;;;;;;19.70;9.07;;;;;;;;;;5107996;27;20035;-75
2022/06/18 07:22:28;;;;;;;17.02;8.65;;;;;;;;;;5116890;27;20042;-75
2022/06/18 07:24:55;;;;;;;16.05;8.20;;;;;;;;;;5113655;27;20507;-75
2022/06/18 07:27:22;;;;;;;17.50;8.20;;;;;;;;;;5114761;27;20039;-75
2022/06/18 07:29:48;;;;;;;16.33;7.32;;;;;;;;;;5123359;27;20027;-75
2022/06/18 07:32:15;;;;;;;15.68;6.82;;;;;;;;;;5112605;27;20050;-75
2022/06/18 07:34:41;;;;;;;17.98;7.13;;;;;;;;;;5112788;27;20035;-75
2022/06/18 07:37:08;;;;;;;12.77;6.60;;;;;;;;;;5115255;27;20031;-75
2022/06/18 07:39:34;;;;;;;16.00;6.35;;;;;;;;;;5110039;27;20034;-75
2022/06/18 07:42:01;;;;;;;13.10;5.60;;;;;;;;;;5099364;27;20126;-75
2022/06/18 07:44:27;;;;;;;14.23;5.95;;;;;;;;;;5117140;27;20177;-76
2022/06/18 07:47:03;;;;;;;17.42;6.13;;;;;;;;;;5116179;27;20550;-75
2022/06/18 07:49:29;;;;;;;14.25;5.85;;;;;;;;;;5134840;27;20038;-75
2022/06/18 07:51:55;;;;;;;12.80;4.88;;;;;;;;;;5111644;27;20042;-75
2022/06/18 07:54:22;;;;;;;13.52;5.20;;;;;;;;;;5113036;27;20382;-75
2022/06/18 07:56:48;;;;;;;16.88;5.00;;;;;;;;;;5112755;27;20477;-75
2022/06/18 07:59:15;;;;;;;11.90;4.97;;;;;;;;;;5115780;27;20024;-75
2022/06/18 08:01:41;;;;;;;12.38;4.57;;;;;;;;;;5114407;27;20039;-75
2022/06/18 08:04:07;;;;;;;9.90;4.30;;;;;;;;;;5118376;27;20046;-75
2022/06/18 08:06:33;;;;;;;14.90;5.20;;;;;;;;;;5095448;27;20118;-75
2022/06/18 08:08:59;;;;;;;15.25;5.38;;;;;;;;;;5112837;27;20152;-75
2022/06/18 08:11:28;;;;;;;15.30;5.43;;;;;;;;;;5140396;22;20067;-74
2022/06/18 08:13:54;;;;;;;16.17;4.80;;;;;;;;;;5036845;28;20452;-74
2022/06/18 08:16:20;;;;;;;13.90;4.45;;;;;;;;;;5054990;28;20367;-75
2022/06/18 08:18:46;;;;;;;12.13;4.68;;;;;;;;;;5052811;28;20389;-75
2022/06/18 08:21:27;;;;;;;11.90;5.03;;;;;;;;;;5052076;28;20051;-74
2022/06/18 08:23:55;;;;;;;16.85;4.82;;;;;;;;;;5067711;28;20036;-75
2022/06/18 08:26:21;;;;;;;12.40;4.72;;;;;;;;;;5049468;28;20055;-75
2022/06/18 08:28:48;;;;;;;10.48;4.53;;;;;;;;;;5049293;28;20595;-75
2022/06/18 08:31:14;;;;;;;10.55;3.95;;;;;;;;;;5050792;28;20037;-75
2022/06/18 08:33:40;;;;;;;11.35;4.10;;;;;;;;;;5046291;28;20044;-76
2022/06/18 08:36:09;;;;;;;14.38;5.07;;;;;;;;;;5044407;28;20398;-76
2022/06/18 08:38:35;;;;;;;10.52;4.20;;;;;;;;;;5047313;28;20032;-76
2022/06/18 08:41:04;;;;;;;10.10;3.78;;;;;;;;;;5048849;28;20699;-75
2022/06/18 08:43:49;;;;;;;10.80;3.90;;;;;;;;;;5043342;28;20447;-75
2022/06/18 08:46:25;;;;;;;7.97;3.97;;;;;;;;;;5047430;28;20083;-76
2022/06/18 08:48:55;;;;;;;10.63;3.90;;;;;;;;;;5053613;28;20693;-75
2022/06/18 08:51:24;;;;;;;11.60;4.47;;;;;;;;;;5045299;28;20393;-75
2022/06/18 08:53:53;;;;;;;13.75;4.20;;;;;;;;;;5042201;28;20374;-75
2022/06/18 08:56:32;;;;;;;11.30;4.60;;;;;;;;;;5045065;28;20041;-74
2022/06/18 08:59:10;;;;;;;12.25;4.55;;;;;;;;;;5052562;28;20474;-75
2022/06/18 09:02:07;;;;;;;9.23;4.30;;;;;;;;;;5046299;28;20541;-75
2022/06/18 09:04:52;;;;;;;14.73;4.35;;;;;;;;;;5028915;28;20583;-75
2022/06/18 09:07:36;;;;;;;10.20;3.60;;;;;;;;;;5044155;28;20526;-74
2022/06/18 09:10:08;;;;;;;10.90;3.75;;;;;;;;;;5048114;28;20056;-75
2022/06/18 09:12:45;;;;;;;9.77;3.78;;;;;;;;;;5018552;28;20041;-75
2022/06/18 09:15:25;;;;;;;9.48;3.58;;;;;;;;;;5041457;28;20418;-75
2022/06/18 09:17:51;;;;;;;9.60;3.90;;;;;;;;;;5043617;28;20040;-75
2022/06/18 09:20:43;;;;;;;12.80;4.30;;;;;;;;;;5044445;28;20052;-75
2022/06/18 09:23:15;;;;;;;11.23;3.13;;;;;;;;;;5044121;28;20433;-75
2022/06/18 09:25:44;;;;;;;11.13;4.00;;;;;;;;;;5045435;28;20415;-75
2022/06/18 09:28:19;;;;;;;8.63;4.07;;;;;;;;;;5044760;28;20040;-75
2022/06/18 09:30:51;;;;;;;9.10;3.78;;;;;;;;;;5033936;28;20536;-75
2022/06/18 09:33:20;;;;;;;38.83;9.68;;;;;;;;;;5043552;28;20383;-75
2022/06/18 09:35:52;;;;;;;98.25;24.58;;;;;;;;;;5043157;28;20032;-75
2022/06/18 09:38:18;;;;;;;211.23;48.88;;;;;;;;;;5040352;28;20085;-76
2022/06/18 09:41:11;;;;;;;23.20;7.00;;;;;;;;;;5032177;28;20041;-75
2022/06/18 09:43:56;;;;;;;23.38;5.70;;;;;;;;;;5049916;28;20413;-75
2022/06/18 09:46:26;;;;;;;157.57;32.13;;;;;;;;;;5058997;28;20071;-76
2022/06/18 09:48:53;;;;;;;38.38;10.68;;;;;;;;;;5055912;28;20040;-74
2022/06/18 09:51:27;;;;;;;17.08;4.50;;;;;;;;;;5036341;28;20102;-77
2022/06/18 09:53:55;;;;;;;41.05;7.82;;;;;;;;;;5048860;28;20426;-74
2022/06/18 09:56:24;;;;;;;13.93;4.43;;;;;;;;;;5043302;28;20037;-74
2022/06/18 09:58:56;;;;;;;23.30;5.05;;;;;;;;;;5047296;28;20033;-74
2022/06/18 10:01:27;;;;;;;40.15;8.73;;;;;;;;;;5048177;28;20043;-74
2022/06/18 10:07:32;;;;;;;10.10;3.67;;;27.80;93.60;;;;;;5087798;28;20803;-73
2022/06/18 10:10:05;;;;;;;37.85;8.25;;;27.80;94.60;;;;;;5078909;28;20047;-74
2022/06/18 10:12:42;;;;;;;26.58;8.82;;;27.80;93.50;;;;;;5065538;28;20036;-74
2022/06/18 10:15:11;;;;;;;23.30;9.60;;;27.90;93.60;;;;;;5062940;28;20037;-74
2022/06/18 10:17:45;;;;;;;15.95;5.60;;;28.00;94.50;;;;;;5078403;28;20079;-74
2022/06/18 10:20:32;;;;;;;54.97;14.55;;;28.20;93.00;;;;;;5071649;28;20033;-74
2022/06/18 10:23:39;;;;;;;33.70;10.98;;;28.30;93.10;;;;;;5065698;28;20504;-74
2022/06/18 10:26:28;;;;;;;12.30;5.63;;;28.40;93.40;;;;;;5079479;28;20178;-74
2022/06/18 10:28:57;;;;;;;33.10;11.25;;;28.60;93.00;;;;;;5061563;28;20102;-74
2022/06/18 10:31:31;;;;;;;94.07;46.67;;;28.50;92.60;;;;;;5066798;28;20040;-74
2022/06/18 10:34:31;;;;;;;46.88;28.27;;;28.60;92.90;;;;;;5062221;28;20086;-74
2022/06/18 10:37:07;;;;;;;42.17;24.98;;;28.90;93.20;;;;;;5063146;28;20040;-75
2022/06/18 10:39:55;;;;;;;134.38;36.70;;;29.00;91.90;;;;;;5059889;28;20041;-74
2022/06/18 10:42:49;;;;;;;64.60;14.85;;;29.00;92.00;;;;;;5063061;28;20491;-74
2022/06/18 10:45:21;;;;;;;64.30;24.33;;;;;;;;;;5065755;28;20086;-74
2022/06/18 10:47:49;;;;;;;7.35;3.30;;;;;;;;;;5059928;28;20044;-74
2022/06/18 10:50:17;;;;;;;29.17;6.28;;;;;;;;;;5061895;28;20037;-74
2022/06/18 10:52:43;;;;;;;16.25;4.55;;;;;;;;;;5060441;28;20072;-74
2022/06/18 10:55:13;;;;;;;14.10;4.97;;;;;;;;;;5058959;28;20056;-74
2022/06/18 10:57:39;;;;;;;30.52;13.63;;;;;;;;;;5058789;28;20040;-74
2022/06/18 11:00:23;;;;;;;32.72;7.85;;;;;;;;;;5063519;28;20127;-75
2022/06/18 11:02:51;;;;;;;9.10;2.83;;;;;;;;;;5039220;28;20131;-74
2022/06/18 11:05:17;;;;;;;8.95;2.72;;;;;;;;;;5047067;28;20033;-74
2022/06/18 11:07:46;;;;;;;8.63;2.60;;;;;;;;;;5077482;28;20052;-74
2022/06/18 11:10:33;;;;;;;18.65;3.22;;;;;;;;;;5043179;28;20063;-74
2022/06/18 11:13:00;;;;;;;7.38;2.42;;;;;;;;;;5054520;28;20033;-75
2022/06/18 11:15:31;;;;;;;7.60;2.63;;;;;;;;;;5062939;28;20051;-74
2022/06/18 11:17:57;;;;;;;7.50;2.38;;;;;;;;;;5041247;28;20115;-71
2022/06/18 11:20:25;;;;;;;6.10;2.28;;;;;;;;;;5042714;28;20052;-73
2022/06/18 11:22:55;;;;;;;9.43;3.17;;;;;;;;;;5046760;28;20071;-74
2022/06/18 11:25:24;;;;;;;8.50;2.60;;;;;;;;;;5062482;28;20045;-74
2022/06/18 11:27:52;;;;;;;7.38;2.60;;;;;;;;;;5046317;28;20041;-74
2022/06/18 11:30:21;;;;;;;11.80;2.60;;;;;;;;;;5048303;28;20530;-74
2022/06/18 11:32:48;;;;;;;4.78;2.20;;;;;;;;;;5048784;28;20084;-74
2022/06/18 11:35:14;;;;;;;8.43;2.28;;;;;;;;;;5048502;28;20053;-74
2022/06/18 11:37:40;;;;;;;5.18;2.15;;;;;;;;;;5051038;28;20041;-74
2022/06/18 11:40:06;;;;;;;6.97;2.13;;;;;;;;;;5050264;28;20052;-74
2022/06/18 11:42:51;;;;;;;7.32;2.40;;;;;;;;;;5047753;28;20048;-74
2022/06/18 11:45:23;;;;;;;7.07;2.05;;;;;;;;;;5057427;28;20132;-73
2022/06/18 11:47:58;;;;;;;8.52;2.35;;;;;;;;;;5028562;28;20040;-74
2022/06/18 11:50:34;;;;;;;6.63;2.10;;;;;;;;;;5049487;28;20102;-74
2022/06/18 11:53:09;;;;;;;11.13;2.50;;;;;;;;;;5049384;28;20390;-73
2022/06/18 11:55:37;;;;;;;9.35;2.25;;;;;;;;;;5041255;28;20127;-72
2022/06/18 11:58:22;;;;;;;8.30;2.40;;;;;;;;;;5049129;28;20148;-73
2022/06/18 12:01:07;;;;;;;7.10;2.10;;;;;;;;;;5043883;28;20037;-76
2022/06/18 12:03:47;;;;;;;6.18;2.10;;;;;;;;;;5057835;28;20042;-76
2022/06/18 12:06:16;;;;;;;6.40;2.25;;;;;;;;;;5047742;28;20087;-76
2022/06/18 12:08:43;;;;;;;6.18;2.38;;;;;;;;;;5050827;28;20770;-76
2022/06/18 12:11:28;;;;;;;6.80;2.13;;;;;;;;;;5043268;28;20036;-76
2022/06/18 12:14:02;;;;;;;7.63;2.05;;;;;;;;;;5060232;28;20135;-76
2022/06/18 12:16:36;;;;;;;8.23;2.35;;;;;;;;;;5049213;28;20083;-76
2022/06/18 12:19:14;;;;;;;5.03;1.83;;;;;;;;;;5048508;28;20049;-76
2022/06/18 12:21:47;;;;;;;5.70;2.20;;;;;;;;;;5050406;28;20036;-77
2022/06/18 12:24:14;;;;;;;5.72;2.05;;;;;;;;;;5043706;28;20118;-77
2022/06/18 12:26:47;;;;;;;8.93;2.42;;;;;;;;;;5032291;28;20043;-77
2022/06/18 12:29:32;;;;;;;7.50;2.22;;;;;;;;;;5033378;28;20044;-76
2022/06/18 12:32:11;;;;;;;5.22;2.47;;;;;;;;;;5065958;28;20036;-76
2022/06/18 12:34:49;;;;;;;6.95;1.90;;;;;;;;;;5041488;28;20042;-76
2022/06/18 12:37:18;;;;;;;5.75;2.10;;;;;;;;;;5046207;28;20093;-80
2022/06/18 12:39:55;;;;;;;6.05;1.90;;;;;;;;;;5036885;28;20037;-79
2022/06/18 12:42:25;;;;;;;10.10;1.90;;;;;;;;;;5045391;28;20047;-79
2022/06/18 12:44:54;;;;;;;5.57;1.92;;;;;;;;;;5053778;28;20036;-80
2022/06/18 12:47:39;;;;;;;5.32;1.88;;;;;;;;;;5052716;28;20043;-80
2022/06/18 12:50:22;;;;;;;5.63;1.75;;;;;;;;;;5045351;28;20081;-80
2022/06/18 12:53:07;;;;;;;7.95;1.83;;;;;;;;;;5036795;28;20526;-80
2022/06/18 12:55:39;;;;;;;6.10;1.60;;;;;;;;;;5038525;28;20048;-79
2022/06/18 12:58:25;;;;;;;6.63;1.75;;;;;;;;;;5032306;28;20036;-80
2022/06/18 13:00:55;;;;;;;3.83;1.60;;;;;;;;;;5033399;28;20052;-79
2022/06/18 13:03:40;;;;;;;4.78;1.60;;;;;;;;;;5030741;28;20182;-80
2022/06/18 13:06:11;;;;;;;3.35;1.50;;;;;;;;;;5036173;28;20045;-80
2022/06/18 13:08:44;;;;;;;6.00;1.60;;;;;;;;;;5052073;28;20041;-79
2022/06/18 13:11:13;;;;;;;5.90;1.77;;;;;;;;;;5063415;28;20072;-81
2022/06/18 13:14:00;;;;;;;6.35;1.58;;;;;;;;;;5019980;28;20037;-80
2022/06/18 13:16:44;;;;;;;4.70;1.48;;;;;;;;;;5046852;28;20128;-80
2022/06/18 13:19:19;;;;;;;4.80;1.73;;;;;;;;;;5044194;28;20495;-79
2022/06/18 13:21:46;;;;;;;3.60;1.30;;;;;;;;;;5069152;28;20495;-80
2022/06/18 13:29:52;;;;;;;23.75;2.30;;;;;;;;;;5045892;28;20502;-80
2022/06/18 13:32:29;;;;;;;19.17;2.47;;;;;;;;;;5044952;28;20475;-80
2022/06/18 13:35:02;;;;;;;19.05;2.75;;;;;;;;;;5049989;28;20033;-81
2022/06/18 13:37:37;;;;;;;10.07;2.63;;;;;;;;;;5051374;28;20051;-80
2022/06/18 13:40:13;;;;;;;9.88;3.30;;;;;;;;;;5030066;28;20047;-81
2022/06/18 13:42:58;;;;;;;8.18;2.70;;;;;;;;;;5033594;28;20044;-81
2022/06/18 13:45:40;;;;;;;11.23;2.90;;;;;;;;;;5035095;28;20095;-79
2022/06/18 13:48:10;;;;;;;6.93;1.83;;;;;;;;;;5051441;28;20036;-81
2022/06/18 13:50:43;;;;;;;5.80;1.70;;;;;;;;;;5048502;28;20461;-81
2022/06/18 13:53:10;;;;;;;3.60;1.35;;;;;;;;;;5047496;28;20082;-81
2022/06/18 13:55:38;;;;;;;4.18;1.02;;;;;;;;;;5034323;28;20083;-79
2022/06/18 13:58:06;;;;;;;4.72;1.02;;;;;;;;;;5052121;28;20041;-79
2022/06/18 14:00:33;;;;;;;6.75;1.20;;;;;;;;;;5052027;28;20132;-79
2022/06/18 14:03:01;;;;;;;5.38;1.17;;;;;;;;;;5036730;28;20140;-79
2022/06/18 14:05:36;;;;;;;4.50;0.90;;;;;;;;;;5032016;28;20406;-75
2022/06/18 14:08:03;;;;;;;1.73;0.90;;;;;;;;;;5047511;28;20137;-75
2022/06/18 14:10:29;;;;;;;3.25;1.10;;;;;;;;;;5024997;28;20045;-75
2022/06/18 14:12:59;;;;;;;3.95;1.00;;;;;;;;;;5043580;28;20041;-75
2022/06/18 14:15:27;;;;;;;1.35;0.80;;;;;;;;;;5044529;28;20079;-75
2022/06/18 14:17:56;;;;;;;5.03;1.00;;;;;;;;;;5060884;28;20029;-75
2022/06/18 14:20:22;;;;;;;5.45;1.20;;;;;;;;;;5047753;28;20045;-75
2022/06/18 14:23:04;;;;;;;4.90;1.00;;;;;;;;;;5049537;28;20040;-75
2022/06/18 14:25:42;;;;;;;3.22;0.93;;;;;;;;;;5050276;28;20124;-75
2022/06/18 14:28:18;;;;;;;5.65;1.20;;;;;;;;;;5031742;28;20068;-76
2022/06/18 14:30:46;;;;;;;2.80;1.02;;;;;;;;;;5044970;28;20487;-75
2022/06/18 14:33:18;;;;;;;3.83;1.00;;;;;;;;;;5048590;28;20052;-76
2022/06/18 14:35:44;;;;;;;;;;;;;;;;;;5051939;28;20049;-76
2022/06/18 14:38:10;;;;;;;3.97;1.25;;;;;;;;;;5048292;28;19916;-75
2022/06/18 14:43:50;;;;;;;3.83;1.10;;;;;;;;;;5058967;28;20041;-75
2022/06/18 14:46:30;;;;;;;3.00;1.00;;;;;;;;;;5049478;28;20040;-75
2022/06/18 14:49:21;;;;;;;6.90;1.50;;;;;;;;;;5044724;28;20636;-75
2022/06/18 14:51:50;;;;;;;4.95;1.48;;;;;;;;;;5034008;28;20032;-74
2022/06/18 14:54:43;;;;;;;3.13;1.00;;;;;;;;;;5050693;28;20041;-73
2022/06/18 14:57:15;;;;;;;3.90;1.17;;;;;;;;;;5034369;28;20071;-74
2022/06/18 15:00:00;;;;;;;5.38;1.10;;;;;;;;;;5051951;28;20467;-74
2022/06/18 15:02:29;;;;;;;5.57;1.30;;;;;;;;;;5058807;28;20037;-74
2022/06/18 15:04:59;;;;;;;5.18;1.42;;;;;;;;;;5057724;28;20049;-74
2022/06/18 15:07:29;;;;;;;5.82;1.42;;;;;;;;;;5044653;28;20049;-74
2022/06/18 15:09:56;;;;;;;5.80;1.30;;;;;;;;;;5041300;28;20041;-72